createdAt,value
2023-03-06T00:02:09.518Z,83.55
2023-03-06T00:07:11.049Z,84.02
2023-03-06T00:12:12.544Z,83.69
2023-03-06T00:17:14.047Z,83.62
2023-03-06T00:22:16.561Z,83.59
2023-03-06T00:27:18.455Z,83.83
2023-03-06T00:32:19.979Z,83.99
2023-03-06T00:37:23.434Z,83.88
2023-03-06T00:42:25.326Z,83.84
2023-03-06T00:47:27.267Z,83.73
2023-03-06T00:52:29.224Z,83.72
2023-03-06T00:57:30.769Z,83.59
2023-03-06T01:02:32.640Z,83.57
2023-03-06T01:07:37.018Z,83.46
2023-03-06T01:12:38.947Z,83.59
2023-03-06T01:17:40.473Z,83.43
2023-03-06T01:22:42.927Z,83.48
2023-03-06T01:27:44.458Z,83.49
2023-03-06T01:32:46.456Z,83.43
2023-03-06T01:37:47.946Z,83.71
2023-03-06T01:42:50.537Z,83.75
2023-03-06T01:47:51.998Z,83.43
2023-03-06T01:52:58.062Z,83.64
2023-03-06T01:58:03.849Z,83.36
2023-03-06T02:03:10.405Z,83.43
2023-03-06T02:08:15.004Z,83.47
2023-03-06T02:13:16.649Z,83.19
2023-03-06T02:18:18.421Z,83.23
2023-03-06T02:23:32.263Z,83.47
2023-03-06T02:28:34.670Z,83.37
2023-03-06T02:33:36.184Z,83.68
2023-03-06T02:38:44.590Z,83.45
2023-03-06T02:43:48.802Z,83.75
2023-03-06T02:48:50.349Z,84.09
2023-03-06T02:53:51.868Z,83.97
2023-03-06T02:58:53.339Z,84.13
2023-03-06T03:03:54.845Z,84.16
2023-03-06T03:08:56.322Z,84.18
2023-03-06T03:13:57.807Z,84.36
2023-03-06T03:18:59.315Z,84.02
2023-03-06T03:24:00.807Z,84.10
2023-03-06T03:29:04.197Z,84.02
2023-03-06T03:34:06.163Z,83.95
2023-03-06T03:39:07.686Z,84.06
2023-03-06T03:44:09.711Z,83.91
2023-03-06T03:49:11.312Z,84.02
2023-03-06T03:54:12.911Z,84.09
2023-03-06T03:59:14.963Z,84.09
2023-03-06T04:04:16.553Z,83.81
2023-03-06T04:09:18.049Z,83.78
2023-03-06T04:14:19.501Z,83.76
2023-03-06T04:19:20.979Z,84.00
2023-03-06T04:24:22.436Z,83.95
2023-03-06T04:29:23.888Z,84.24
2023-03-06T04:34:25.547Z,83.86
2023-03-06T04:39:27.135Z,84.09
2023-03-06T04:44:28.643Z,84.45
2023-03-06T04:49:30.143Z,84.32
2023-03-06T04:54:32.127Z,83.90
2023-03-06T04:59:33.670Z,84.00
2023-03-06T05:04:35.196Z,84.30
2023-03-06T05:09:39.127Z,84.51
2023-03-06T05:14:40.789Z,84.79
2023-03-06T05:19:42.243Z,85.07
2023-03-06T05:24:43.705Z,84.85
2023-03-06T05:29:45.379Z,84.39
2023-03-06T05:34:47.559Z,84.45
2023-03-06T05:39:50.066Z,84.26
2023-03-06T05:44:51.610Z,84.14
2023-03-06T05:49:53.105Z,83.92
2023-03-06T05:54:55.442Z,83.88
2023-03-06T05:59:56.961Z,84.11
2023-03-06T06:04:58.517Z,83.92
2023-03-06T06:10:03.137Z,83.80
2023-03-06T06:15:06.643Z,83.97
2023-03-06T06:20:09.477Z,84.17
2023-03-06T06:25:10.956Z,83.95
2023-03-06T06:30:13.443Z,83.76
2023-03-06T06:35:15.117Z,84.04
2023-03-06T06:40:17.107Z,83.86
2023-03-06T06:45:19.016Z,84.08
2023-03-06T06:50:20.603Z,83.73
2023-03-06T06:55:22.110Z,83.16
2023-03-06T07:00:24.439Z,83.00
2023-03-06T07:05:25.961Z,82.71
2023-03-06T07:10:27.645Z,82.14
2023-03-06T07:15:30.884Z,81.68
2023-03-06T07:20:32.650Z,80.96
2023-03-06T07:25:34.323Z,80.58
2023-03-06T07:30:35.893Z,80.35
2023-03-06T07:35:37.435Z,79.89
2023-03-06T07:40:39.064Z,78.84
2023-03-06T07:45:40.531Z,78.81
2023-03-06T07:50:42.170Z,77.47
2023-03-06T07:55:43.695Z,77.14
2023-03-06T08:00:45.709Z,78.00
2023-03-06T08:05:47.203Z,77.92
2023-03-06T08:10:49.213Z,77.51
2023-03-06T08:15:50.785Z,76.56
2023-03-06T08:21:05.936Z,73.58
2023-03-06T08:26:16.387Z,71.92
2023-03-06T08:31:27.217Z,72.15
2023-03-06T08:36:29.436Z,72.45
2023-03-06T08:41:31.781Z,71.76
2023-03-06T08:46:34.999Z,72.25
2023-03-06T08:51:36.533Z,71.92
2023-03-06T08:56:38.497Z,71.69
2023-03-06T09:01:40.874Z,71.08
2023-03-06T09:06:45.303Z,70.75
2023-03-06T09:11:46.824Z,71.15
2023-03-06T09:16:48.571Z,69.95
2023-03-06T09:21:50.266Z,69.87
2023-03-06T09:26:51.886Z,69.13
2023-03-06T09:31:53.639Z,69.31
2023-03-06T09:36:57.264Z,69.16
2023-03-06T09:41:59.326Z,68.71
2023-03-06T09:47:18.967Z,68.13
2023-03-06T09:52:30.275Z,68.04
2023-03-06T09:57:36.210Z,66.90
2023-03-06T10:02:44.524Z,66.91
2023-03-06T10:07:53.022Z,67.30
2023-03-06T10:13:10.020Z,67.91
2023-03-06T10:18:13.349Z,67.27
2023-03-06T10:23:56.474Z,67.66
2023-03-06T10:29:28.773Z,67.46
2023-03-06T10:34:35.677Z,67.26
2023-03-06T10:39:37.459Z,68.70
2023-03-06T10:44:38.962Z,69.84
2023-03-06T10:49:41.213Z,70.74
2023-03-06T10:54:44.417Z,71.69
2023-03-06T10:59:56.532Z,71.90
2023-03-06T11:05:00.945Z,72.46
2023-03-06T11:10:19.412Z,72.31
2023-03-06T11:15:23.759Z,72.29
2023-03-06T11:20:48.544Z,71.74
2023-03-06T11:26:11.091Z,71.78
2023-03-06T11:31:20.960Z,71.99
2023-03-06T11:36:33.845Z,71.59
2023-03-06T11:41:57.732Z,70.46
2023-03-06T11:47:31.459Z,70.06
2023-03-06T11:52:53.224Z,70.93
2023-03-06T11:58:16.510Z,71.75
2023-03-06T12:03:36.280Z,71.08
2023-03-06T12:09:04.934Z,72.93
2023-03-06T12:14:13.009Z,74.05
2023-03-06T12:19:33.245Z,74.80
2023-03-06T12:25:03.176Z,76.53
2023-03-06T12:30:26.364Z,77.74
2023-03-06T12:36:00.345Z,87.89
2023-03-06T12:41:16.913Z,90.87
2023-03-06T12:46:24.941Z,91.00
2023-03-06T12:51:27.314Z,86.94
2023-03-06T12:56:31.739Z,83.61
2023-03-06T13:01:55.654Z,82.68
2023-03-06T13:07:28.977Z,81.92
2023-03-06T13:13:25.092Z,80.80
2023-03-06T13:18:26.575Z,82.78
2023-03-06T13:23:37.390Z,82.46
2023-03-06T13:28:46.964Z,83.27
2023-03-06T13:33:55.356Z,82.37
2023-03-06T13:39:02.566Z,83.30
2023-03-06T13:44:26.113Z,82.37
2023-03-06T13:49:29.473Z,82.73
2023-03-06T13:54:33.870Z,82.02
2023-03-06T14:00:08.744Z,84.18
2023-03-06T14:05:14.548Z,81.50
2023-03-06T14:10:24.919Z,82.37
2023-03-06T14:15:36.185Z,83.05
2023-03-06T14:20:49.369Z,83.05
2023-03-06T14:25:59.002Z,82.48
2023-03-06T14:31:03.461Z,83.17
2023-03-06T14:36:09.978Z,82.37
2023-03-06T14:41:14.061Z,82.52
2023-03-06T14:46:21.470Z,81.44
2023-03-06T14:51:25.536Z,81.88
2023-03-06T14:56:28.287Z,81.29
2023-03-06T15:01:36.392Z,81.18
2023-03-06T15:06:45.285Z,81.10
2023-03-06T15:12:08.043Z,81.54
2023-03-06T15:17:18.342Z,81.67
2023-03-06T15:22:33.571Z,81.83
2023-03-06T15:27:35.479Z,82.46
2023-03-06T15:32:42.524Z,83.01
2023-03-06T15:37:44.841Z,83.59
2023-03-06T15:42:46.854Z,83.61
2023-03-06T15:47:49.863Z,83.68
2023-03-06T15:52:53.065Z,83.89
2023-03-06T15:57:59.686Z,83.86
2023-03-06T16:03:02.028Z,84.66
2023-03-06T16:08:04.682Z,85.60
2023-03-06T16:13:11.140Z,84.57
2023-03-06T16:18:13.520Z,83.91
2023-03-06T16:23:16.374Z,84.81
2023-03-06T16:28:17.908Z,84.44
2023-03-06T16:33:20.745Z,84.09
2023-03-06T16:38:22.273Z,84.45
2023-03-06T16:43:23.839Z,84.86
2023-03-06T16:48:25.317Z,84.80
2023-03-06T16:53:26.913Z,84.77
2023-03-06T16:58:28.481Z,84.73
2023-03-06T17:03:30.022Z,84.94
2023-03-06T17:08:31.610Z,85.02
2023-03-06T17:13:33.094Z,84.65
2023-03-06T17:18:35.236Z,84.83
2023-03-06T17:23:37.915Z,84.94
2023-03-06T17:28:39.975Z,84.93
2023-03-06T17:33:42.418Z,84.64
2023-03-06T17:38:44.303Z,84.35
2023-03-06T17:43:46.188Z,84.44
2023-03-06T17:48:47.865Z,83.96
2023-03-06T17:53:49.748Z,84.18
2023-03-06T17:58:51.408Z,84.49
2023-03-06T18:03:53.623Z,84.71
2023-03-06T18:08:55.094Z,84.50
2023-03-06T18:13:56.837Z,85.51
2023-03-06T18:18:58.595Z,85.52
2023-03-06T18:24:00.126Z,85.68
2023-03-06T18:29:04.512Z,85.54
2023-03-06T18:34:12.670Z,85.64
2023-03-06T18:39:15.799Z,85.47
2023-03-06T18:44:17.657Z,84.96
2023-03-06T18:49:19.226Z,84.94
2023-03-06T18:54:20.994Z,85.30
2023-03-06T18:59:22.845Z,85.58
2023-03-06T19:04:26.130Z,86.01
2023-03-06T19:09:27.630Z,86.09
2023-03-06T19:14:29.637Z,86.19
2023-03-06T19:19:31.151Z,86.21
2023-03-06T19:24:32.692Z,85.95
2023-03-06T19:29:34.246Z,85.92
2023-03-06T19:34:35.766Z,85.81
2023-03-06T19:39:37.323Z,85.71
2023-03-06T19:44:38.788Z,85.69
2023-03-06T19:49:40.433Z,85.42
2023-03-06T19:54:41.923Z,85.37
2023-03-06T19:59:43.829Z,85.77
2023-03-06T20:04:47.229Z,85.54
2023-03-06T20:09:48.913Z,85.83
2023-03-06T20:14:53.244Z,85.54
2023-03-06T20:19:58.180Z,85.41
2023-03-06T20:24:59.662Z,86.04
2023-03-06T20:30:01.507Z,86.09
2023-03-06T20:35:03.590Z,86.18
2023-03-06T20:40:06.082Z,85.78
2023-03-06T20:45:08.166Z,85.63
2023-03-06T20:50:10.224Z,85.67
2023-03-06T20:55:12.100Z,85.40
2023-03-06T21:00:14.018Z,84.85
2023-03-06T21:05:15.874Z,85.16
2023-03-06T21:10:17.552Z,85.34
2023-03-06T21:15:19.635Z,85.73
2023-03-06T21:20:21.298Z,86.44
2023-03-06T21:25:23.391Z,86.10
2023-03-06T21:30:24.865Z,86.06
2023-03-06T21:35:26.828Z,86.57
2023-03-06T21:40:28.415Z,85.80
2023-03-06T21:45:31.818Z,85.60
2023-03-06T21:50:33.402Z,86.11
2023-03-06T21:55:39.895Z,85.71
2023-03-06T22:00:41.436Z,86.08
2023-03-06T22:05:43.347Z,86.03
2023-03-06T22:10:47.524Z,86.26
2023-03-06T22:15:51.737Z,86.13
2023-03-06T22:20:53.299Z,85.96
2023-03-06T22:25:54.808Z,86.07
2023-03-06T22:31:02.135Z,86.21
2023-03-06T22:36:07.654Z,86.49
2023-03-06T22:41:10.712Z,86.27
2023-03-06T22:46:14.965Z,86.61
2023-03-06T22:51:19.424Z,86.67
2023-03-06T22:56:22.219Z,86.72
2023-03-06T23:01:26.769Z,86.96
2023-03-06T23:06:34.043Z,86.71
2023-03-06T23:11:35.578Z,87.02
2023-03-06T23:16:38.907Z,86.86
2023-03-06T23:21:40.987Z,86.60
2023-03-06T23:26:42.589Z,86.57
2023-03-06T23:31:44.053Z,86.60
2023-03-06T23:36:45.569Z,86.86
2023-03-06T23:41:47.581Z,87.01
2023-03-06T23:46:49.075Z,86.96
2023-03-06T23:51:50.690Z,87.15
2023-03-06T23:56:52.182Z,87.17
